Time;durP1;ratioP1;P1;durP2;ratioP2;P2;SDS_P1;SDS_P2;PMS_P1;PMS_P2;Temp;Humidity;BMP_temperature;BMP_pressure;BME280_temperature;BME280_humidity;BME280_pressure;Samples;Min_cycle;Max_cycle;Signal;HPM_P1;HPM_P2
2021/12/02 00:00:25;;;;;;;3.27;2.22;;;;;;;5.14;69.40;148954.39;1726417;82;21468;-64
2021/12/02 00:02:52;;;;;;;4.55;2.80;;;;;;;5.26;69.32;148982.84;1728435;81;21041;-64
2021/12/02 00:05:18;;;;;;;3.55;2.17;;;;;;;5.53;69.11;149050.06;1729829;81;21032;-64
2021/12/02 00:07:47;;;;;;;3.27;2.10;;;;;;;5.53;69.11;149050.06;1731862;81;20986;-64
2021/12/02 00:10:13;;;;;;;3.55;2.40;;;;;;;5.61;69.14;149070.72;1734524;81;20944;-64
2021/12/02 00:12:40;;;;;;;3.65;2.58;;;;;;;5.69;69.23;149090.12;1736294;81;21086;-64
2021/12/02 00:15:12;;;;;;;3.50;2.33;;;;;;;5.79;69.40;149114.69;1726794;82;21058;-64
2021/12/02 00:17:39;;;;;;;2.70;2.08;;;;;;;5.88;69.50;149139.25;1729129;80;21050;-64
2021/12/02 00:23:21;;;;;;;3.02;2.20;;;;;;;6.05;69.72;149179.39;1729204;81;21089;-63
2021/12/02 00:25:46;;;;;;;3.17;2.08;;;;;;;6.12;69.96;149197.53;1731130;81;21027;-64
2021/12/02 00:28:13;;;;;;;3.75;1.95;;;;;;;6.15;70.03;149206.55;1727608;81;21383;-64
2021/12/02 00:30:39;;;;;;;3.60;2.30;;;;;;;6.18;70.37;149211.72;1734776;82;21090;-63
2021/12/02 00:33:05;;;;;;;3.55;2.30;;;;;;;6.23;70.71;149225.95;1730145;81;21675;-64
2021/12/02 00:35:32;;;;;;;3.95;2.45;;;;;;;6.32;70.90;149246.69;1734366;80;21030;-63
2021/12/02 00:37:59;;;;;;;3.30;2.30;;;;;;;6.37;71.09;149259.59;1732505;82;21093;-64
2021/12/02 00:40:25;;;;;;;5.50;2.60;;;;;;;6.42;71.34;149272.53;1728510;82;21250;-64
2021/12/02 00:42:53;;;;;;;3.75;2.15;;;;;;;6.50;71.74;149293.20;1728404;82;21099;-64
2021/12/02 00:45:19;;;;;;;4.75;2.30;;;;;;;6.57;71.89;149311.34;1734746;81;21877;-64
2021/12/02 00:47:46;;;;;;;4.08;1.90;;;;;;;6.65;72.41;149330.77;1730546;82;21396;-64
2021/12/02 00:50:13;;;;;;;3.10;2.00;;;;;;;6.65;72.41;149330.77;1732417;80;21600;-63
2021/12/02 00:52:41;;;;;;;3.40;1.80;;;;;;;6.71;72.44;149346.28;1722879;82;21082;-64
2021/12/02 00:55:08;;;;;;;4.28;2.20;;;;;;;6.74;72.56;149352.72;1736700;81;21048;-64
2021/12/02 00:57:40;;;;;;;3.75;2.15;;;;;;;6.80;72.62;149368.28;1734115;82;21106;-63
2021/12/02 01:00:09;;;;;;;4.10;2.10;;;;;;;6.84;72.45;149377.31;1737789;80;21056;-64
2021/12/02 01:02:36;;;;;;;3.98;2.27;;;;;;;6.88;72.21;149388.97;1744379;81;20947;-59
2021/12/02 01:05:04;;;;;;;5.22;2.33;;;;;;;6.90;71.80;149391.56;1745615;81;21073;-59
2021/12/02 01:07:30;;;;;;;4.15;2.20;;;;;;;6.90;71.62;149392.87;1747311;80;21054;-60
2021/12/02 01:09:57;;;;;;;5.00;2.47;;;;;;;6.92;71.08;149398.05;1743320;81;21134;-60
2021/12/02 01:12:24;;;;;;;6.30;2.65;;;;;;;6.90;70.53;149391.56;1743707;81;20996;-59
2021/12/02 01:14:51;;;;;;;4.37;2.45;;;;;;;6.86;70.40;149383.80;1749497;80;21557;-59
2021/12/02 01:17:17;;;;;;;3.67;2.58;;;;;;;6.85;70.25;149381.22;1746201;80;21089;-60
2021/12/02 01:19:44;;;;;;;5.17;2.60;;;;;;;6.84;70.12;149377.31;1741724;80;21085;-59
2021/12/02 01:22:10;;;;;;;5.55;2.98;;;;;;;6.85;69.80;149381.22;1746634;80;21600;-59
2021/12/02 01:24:37;;;;;;;5.08;2.80;;;;;;;6.82;69.52;149373.45;1720657;81;21015;-59
2021/12/02 01:27:07;;;;;;;4.17;2.62;;;;;;;6.79;69.46;149365.69;1745839;82;21097;-59
2021/12/02 01:29:35;;;;;;;5.17;2.90;;;;;;;6.78;69.04;149363.11;1745232;80;21114;-59
2021/12/02 01:32:07;;;;;;;5.53;3.08;;;;;;;6.74;68.88;149352.72;1744625;80;21025;-59
2021/12/02 01:34:32;;;;;;;6.97;3.00;;;;;;;6.69;68.86;149341.11;1748080;80;21505;-59
2021/12/02 01:36:59;;;;;;;6.75;3.25;;;;;;;6.66;68.83;149332.03;1745631;81;21054;-59
2021/12/02 01:39:25;;;;;;;6.97;3.37;;;;;;;6.65;69.05;149329.45;1719890;81;20950;-59
2021/12/02 01:41:59;;;;;;;6.92;2.98;;;;;;;6.65;69.02;149329.45;1744218;81;21050;-59
2021/12/02 01:44:27;;;;;;;6.37;3.30;;;;;;;6.63;69.16;149325.59;1744560;81;20955;-59
2021/12/02 01:46:58;;;;;;;6.95;3.08;;;;;;;6.61;69.32;149319.11;1742752;80;21124;-59
2021/12/02 01:49:32;;;;;;;5.95;3.42;;;;;;;6.56;69.53;149307.45;1745803;82;21046;-59
2021/12/02 01:51:59;;;;;;;5.87;3.47;;;;;;;6.54;69.92;149303.59;1742865;81;26586;-59
2021/12/02 01:54:27;;;;;;;7.15;3.80;;;;;;;6.49;70.38;149290.63;1745112;80;21052;-59
2021/12/02 01:57:05;;;;;;;7.95;3.83;;;;;;;6.43;70.93;149275.11;1746747;81;21018;-59
2021/12/02 01:59:36;;;;;;;9.53;3.80;;;;;;;6.40;71.46;149267.36;1745816;81;21809;-59
2021/12/02 02:02:06;;;;;;;6.30;3.67;;;;;;;6.38;72.11;149262.19;1748023;80;21086;-58
2021/12/02 02:04:32;;;;;;;6.72;4.05;;;;;;;6.34;72.74;149251.84;1747985;80;21444;-58
2021/12/02 02:07:06;;;;;;;8.58;4.45;;;;;;;6.33;73.31;149249.27;1746468;80;21059;-58
2021/12/02 02:09:34;;;;;;;5.80;3.80;;;;;;;6.35;74.22;149254.44;1746144;82;21063;-58
2021/12/02 02:12:02;;;;;;;5.50;3.67;;;;;;;6.37;74.90;149259.59;1738731;80;21797;-58
2021/12/02 02:14:29;;;;;;;6.70;3.77;;;;;;;6.43;75.56;149275.11;1745622;82;21061;-58
2021/12/02 02:16:59;;;;;;;6.15;3.92;;;;;;;6.51;75.88;149295.80;1744914;80;21031;-58
2021/12/02 02:19:30;;;;;;;7.62;3.92;;;;;;;6.55;76.30;149304.86;1744615;81;21525;-61
2021/12/02 02:21:54;;;;;;;5.65;3.33;;;;;;;6.54;76.77;149303.59;1745555;80;21094;-59
2021/12/02 02:24:21;;;;;;;5.97;3.77;;;;;;;6.56;77.01;149308.77;1747158;80;21861;-58
2021/12/02 02:26:47;;;;;;;7.00;3.80;;;;;;;6.57;77.19;149310.03;1743927;81;21467;-59
2021/12/02 02:29:14;;;;;;;7.90;3.65;;;;;;;6.55;77.40;149306.19;1747903;80;21074;-59
2021/12/02 02:31:42;;;;;;;8.28;3.80;;;;;;;6.56;77.39;149308.77;1744858;81;21113;-59
2021/12/02 02:34:12;;;;;;;5.55;3.33;;;;;;;6.56;77.31;149308.77;1745572;82;21040;-59
2021/12/02 02:36:50;;;;;;;4.95;2.67;;;;;;;6.56;77.00;149308.77;1744558;81;21144;-59
2021/12/02 02:39:10;;;;;;;5.35;3.02;;;;;;;6.55;76.65;149306.19;1743061;81;21091;-59
2021/12/02 02:41:41;;;;;;;5.47;2.92;;;;;;;6.55;76.44;149306.19;1746165;81;20998;-59
2021/12/02 02:44:06;;;;;;;5.10;2.98;;;;;;;6.52;75.97;149298.44;1745898;82;20967;-59
2021/12/02 02:46:40;;;;;;;4.37;2.67;;;;;;;6.48;75.85;149286.77;1747326;80;20952;-58
2021/12/02 02:49:10;;;;;;;5.83;2.83;;;;;;;6.43;75.69;149276.44;1745414;81;22273;-59
2021/12/02 02:51:37;;;;;;;7.78;2.95;;;;;;;6.39;75.50;149264.78;1746405;80;20951;-59
2021/12/02 02:54:08;;;;;;;6.12;2.87;;;;;;;6.36;75.57;149257.02;1744382;80;21054;-59
2021/12/02 02:56:40;;;;;;;6.78;2.80;;;;;;;6.36;75.57;149257.02;1744830;80;21079;-59
2021/12/02 02:59:29;;;;;;;6.37;2.95;;;;;;;6.36;75.75;149257.02;1747268;80;20943;-59
2021/12/02 03:04:44;;;;;;;;;;;;;;;6.38;76.02;149262.19;1739646;81;21085;-59
2021/12/02 03:07:19;;;;;;;5.90;2.47;;;;;;;6.38;76.21;149262.19;1733189;81;20516;-58
2021/12/02 03:09:51;;;;;;;8.25;3.00;;;;;;;6.39;76.63;149266.05;1734977;81;21049;-58
2021/12/02 03:12:26;;;;;;;5.28;2.60;;;;;;;6.44;76.89;149277.69;1728323;82;21076;-58
2021/12/02 03:17:13;;;;;;;4.95;2.12;;;;;;;6.48;77.18;149286.77;1733250;81;21042;-58
2021/12/02 03:19:42;;;;;;;10.95;2.80;;;;;;;6.50;77.34;149293.20;1734055;81;21544;-58
2021/12/02 03:22:09;;;;;;;4.15;2.27;;;;;;;6.55;77.54;149306.19;1736434;81;21565;-58
2021/12/02 03:24:35;;;;;;;5.37;2.37;;;;;;;6.56;77.64;149308.77;1732117;82;21310;-58
2021/12/02 03:27:03;;;;;;;6.08;2.20;;;;;;;6.61;77.84;149319.11;1735712;82;21123;-58
2021/12/02 03:29:30;;;;;;;6.05;2.72;;;;;;;6.64;77.96;149326.88;1731850;82;20935;-59
2021/12/02 03:31:57;;;;;;;4.65;2.45;;;;;;;6.64;78.13;149326.88;1736352;81;21056;-59
2021/12/02 03:34:24;;;;;;;7.00;2.35;;;;;;;6.64;78.33;149328.19;1739546;81;21078;-59
2021/12/02 03:36:51;;;;;;;5.37;2.22;;;;;;;6.69;78.73;149341.11;1735800;82;21126;-59
2021/12/02 03:39:18;;;;;;;6.78;3.12;;;;;;;6.74;78.90;149352.72;1736779;82;21874;-59
2021/12/02 03:41:44;;;;;;;11.30;3.67;;;;;;;6.78;79.10;149363.11;1728447;82;21084;-59
2021/12/02 03:44:11;;;;;;;10.65;3.10;;;;;;;6.83;79.22;149376.03;1730380;82;21054;-59
2021/12/02 03:46:41;;;;;;;9.15;3.02;;;;;;;6.86;79.30;149383.80;1726128;81;20976;-59
2021/12/02 03:49:07;;;;;;;8.15;2.95;;;;;;;6.90;79.60;149392.87;1656595;84;21146;-59
2021/12/02 03:51:34;;;;;;;6.17;2.62;;;;;;;6.94;79.80;149403.22;1684381;85;21122;-59
2021/12/02 03:54:00;;;;;;;8.23;2.70;;;;;;;7.00;80.17;149418.73;1684490;83;21090;-59
2021/12/02 03:56:27;;;;;;;10.68;3.10;;;;;;;7.08;80.40;149438.16;1685739;83;21329;-59
2021/12/02 03:58:55;;;;;;;7.08;3.22;;;;;;;7.15;80.47;149456.25;1684000;83;21081;-59
2021/12/02 04:01:23;;;;;;;6.55;2.83;;;;;;;7.21;80.44;149470.52;1686514;84;21086;-58
2021/12/02 04:03:50;;;;;;;7.03;2.70;;;;;;;7.26;80.31;149482.17;1683928;84;21836;-60
2021/12/02 04:06:16;;;;;;;6.75;2.85;;;;;;;7.28;80.34;149487.34;1685802;85;21495;-58
2021/12/02 04:14:10;;;;;;;4.03;1.98;;;;;;;7.33;80.51;149500.28;1639462;85;21171;-58
2021/12/02 04:16:36;;;;;;;5.35;2.58;;;;;;;7.40;80.58;149517.12;1683371;84;21499;-60
2021/12/02 04:19:03;;;;;;;7.83;2.40;;;;;;;7.40;80.66;149518.39;1684643;83;21861;-60
2021/12/02 04:21:31;;;;;;;7.22;2.33;;;;;;;7.42;80.83;149522.30;1681388;83;21141;-60
2021/12/02 04:23:58;;;;;;;6.95;2.30;;;;;;;7.43;80.81;149524.88;1690278;83;21315;-60
2021/12/02 04:26:24;;;;;;;6.15;2.10;;;;;;;7.42;81.03;149522.30;1683007;83;21046;-60
2021/12/02 04:28:50;;;;;;;5.78;2.50;;;;;;;7.42;81.12;149522.30;1686272;83;21969;-59
2021/12/02 04:31:17;;;;;;;3.80;1.82;;;;;;;7.41;81.39;149521.03;1686138;83;21487;-60
2021/12/02 04:33:43;;;;;;;7.40;2.00;;;;;;;7.42;81.67;149523.61;1684605;85;21122;-60
2021/12/02 04:36:11;;;;;;;5.95;1.87;;;;;;;7.45;81.81;149530.06;1682865;84;21149;-61
2021/12/02 04:38:37;;;;;;;6.30;2.20;;;;;;;7.47;82.03;149533.95;1682216;85;21081;-60
2021/12/02 04:41:04;;;;;;;6.67;2.20;;;;;;;7.50;82.22;149541.72;1682436;85;21143;-60
2021/12/02 04:43:31;;;;;;;8.98;2.20;;;;;;;7.50;82.38;149542.98;1682320;84;21058;-58
2021/12/02 04:45:58;;;;;;;11.97;2.20;;;;;;;7.50;82.77;149541.72;1685338;83;21464;-59
2021/12/02 04:48:24;;;;;;;8.30;1.90;;;;;;;7.53;82.93;149550.80;1677754;84;21004;-59
2021/12/02 04:50:52;;;;;;;5.85;1.72;;;;;;;7.54;83.16;149552.06;1688556;83;21066;-58
2021/12/02 04:53:19;;;;;;;5.53;2.15;;;;;;;7.57;83.53;149559.83;1685682;83;21564;-58
2021/12/02 04:55:46;;;;;;;5.85;1.95;;;;;;;7.60;83.65;149568.91;1685855;85;21066;-59
2021/12/02 04:58:12;;;;;;;3.80;2.02;;;;;;;7.60;83.91;149567.59;1684436;84;21050;-59
2021/12/02 05:00:39;;;;;;;9.78;2.40;;;;;;;7.62;84.13;149572.77;1685395;85;21606;-58
2021/12/02 05:03:06;;;;;;;7.47;2.45;;;;;;;7.61;84.46;149570.19;1683753;84;21086;-58
2021/12/02 05:05:34;;;;;;;6.42;2.70;;;;;;;7.61;84.96;149570.19;1684057;83;21007;-59
2021/12/02 05:08:03;;;;;;;5.80;2.30;;;;;;;7.63;85.06;149575.41;1684405;83;21526;-59
2021/12/02 05:10:30;;;;;;;6.78;2.20;;;;;;;7.66;85.25;149581.84;1685083;83;21065;-58
2021/12/02 05:12:56;;;;;;;10.93;2.47;;;;;;;7.67;85.33;149585.75;1679324;83;21082;-59
2021/12/02 05:15:23;;;;;;;8.20;2.42;;;;;;;7.68;85.27;149588.34;1685387;83;21138;-59
2021/12/02 05:17:50;;;;;;;7.58;2.10;;;;;;;7.70;85.37;149593.52;1682531;83;21590;-59
2021/12/02 05:20:17;;;;;;;8.43;2.20;;;;;;;7.72;85.20;149598.69;1685122;83;21140;-60
2021/12/02 05:22:43;;;;;;;5.87;2.00;;;;;;;7.73;84.99;149601.28;1680479;85;21069;-59
2021/12/02 05:25:10;;;;;;;6.47;2.17;;;;;;;7.72;84.40;149598.69;1684705;85;21066;-58
2021/12/02 05:27:38;;;;;;;5.85;1.95;;;;;;;7.71;83.69;149594.78;1683896;83;21034;-60
2021/12/02 05:30:06;;;;;;;8.70;2.50;;;;;;;7.67;82.98;149584.44;1682765;85;21134;-59
2021/12/02 05:32:33;;;;;;;7.87;2.12;;;;;;;7.62;82.28;149571.50;1685972;83;21127;-59
2021/12/02 05:35:00;;;;;;;7.60;2.20;;;;;;;7.54;81.26;149553.39;1683498;85;21141;-59
2021/12/02 05:37:27;;;;;;;7.90;2.58;;;;;;;7.48;80.28;149536.55;1679771;83;21058;-63
2021/12/02 05:39:54;;;;;;;5.50;2.40;;;;;;;7.44;79.68;149527.47;1683623;84;21006;-60
2021/12/02 05:42:20;;;;;;;5.42;2.30;;;;;;;7.41;79.12;149519.72;1683978;83;21082;-59
2021/12/02 05:44:46;;;;;;;4.83;2.37;;;;;;;7.40;78.48;149518.39;1682783;84;21094;-59
2021/12/02 05:47:13;;;;;;;2.22;1.67;;;;;;;7.42;78.11;149522.30;1684643;83;21025;-63
2021/12/02 05:49:40;;;;;;;3.90;2.40;;;;;;;7.41;77.71;149521.03;1685120;85;21883;-59
2021/12/02 05:52:07;;;;;;;6.12;2.47;;;;;;;7.41;77.20;149519.72;1685475;83;21611;-59
2021/12/02 05:54:34;;;;;;;4.95;2.40;;;;;;;7.40;76.91;149518.39;1684433;83;21120;-61
2021/12/02 05:57:01;;;;;;;4.22;2.25;;;;;;;7.38;76.52;149513.22;1684476;83;21148;-59
2021/12/02 05:59:27;;;;;;;6.67;2.70;;;;;;;7.36;76.43;149506.78;1683864;84;21031;-59
2021/12/02 06:01:54;;;;;;;7.20;2.72;;;;;;;7.37;76.49;149510.62;1682624;85;21097;-59
2021/12/02 06:04:21;;;;;;;5.33;2.37;;;;;;;7.39;76.37;149515.80;1685108;83;21082;-59
2021/12/02 06:06:49;;;;;;;10.58;2.55;;;;;;;7.45;76.57;149531.38;1683023;83;21830;-59
2021/12/02 06:09:18;;;;;;;8.58;2.50;;;;;;;7.56;76.50;149557.25;1681235;84;21034;-59
2021/12/02 06:11:47;;;;;;;8.25;2.58;;;;;;;7.65;76.12;149580.58;1685846;83;20978;-59
2021/12/02 06:14:14;;;;;;;7.00;2.60;;;;;;;7.72;75.97;149598.69;1701726;83;21495;-59
2021/12/02 06:16:42;;;;;;;6.05;2.30;;;;;;;7.82;75.61;149621.98;1658149;84;21088;-60
2021/12/02 06:19:09;;;;;;;8.98;2.40;;;;;;;7.84;75.29;149628.47;1673128;84;21116;-59
2021/12/02 06:21:36;;;;;;;5.67;2.60;;;;;;;7.89;74.80;149640.14;1687961;83;21051;-59
2021/12/02 06:24:05;;;;;;;6.67;2.62;;;;;;;7.87;74.39;149634.97;1688495;83;21659;-59
2021/12/02 06:26:32;;;;;;;8.68;2.60;;;;;;;7.85;74.28;149631.06;1687744;83;21117;-59
2021/12/02 06:28:59;;;;;;;5.35;2.42;;;;;;;7.88;74.11;149637.56;1687676;83;21782;-59
2021/12/02 06:31:26;;;;;;;4.62;2.30;;;;;;;7.90;73.90;149642.73;1688623;83;21115;-58
2021/12/02 06:33:52;;;;;;;7.12;2.50;;;;;;;7.92;73.95;149647.91;1682569;83;21004;-58
2021/12/02 06:36:19;;;;;;;8.68;2.15;;;;;;;7.97;73.95;149660.84;1691012;83;21500;-59
2021/12/02 06:38:45;;;;;;;5.03;2.30;;;;;;;8.01;73.83;149671.20;1688583;83;21798;-59
2021/12/02 06:41:12;;;;;;;7.67;2.58;;;;;;;8.07;73.74;149684.14;1689754;83;21142;-60
2021/12/02 06:43:39;;;;;;;7.40;2.70;;;;;;;8.09;73.63;149689.38;1691691;83;21822;-59
2021/12/02 06:46:06;;;;;;;7.70;2.72;;;;;;;8.14;73.58;149702.31;1691884;83;21079;-60
2021/12/02 06:48:33;;;;;;;3.42;2.20;;;;;;;8.19;73.37;149713.98;1693281;83;21097;-60
2021/12/02 06:50:59;;;;;;;5.65;2.37;;;;;;;8.21;73.33;149720.42;1687481;83;21567;-59
2021/12/02 06:53:26;;;;;;;3.98;2.25;;;;;;;8.24;73.24;149726.92;1685740;83;21091;-60
2021/12/02 06:55:52;;;;;;;7.05;2.58;;;;;;;8.28;73.17;149737.28;1683331;83;21868;-60
2021/12/02 06:58:19;;;;;;;8.38;2.37;;;;;;;8.29;73.18;149741.19;1683354;83;21537;-59
2021/12/02 07:00:45;;;;;;;6.12;2.52;;;;;;;8.33;73.01;149748.95;1688865;83;21559;-60
2021/12/02 07:03:12;;;;;;;7.10;2.80;;;;;;;8.36;72.86;149756.72;1691036;83;21107;-60
2021/12/02 07:05:38;;;;;;;5.78;2.85;;;;;;;8.41;72.83;149769.66;1689464;82;21509;-59
2021/12/02 07:08:05;;;;;;;4.92;2.20;;;;;;;8.48;72.51;149787.78;1684909;83;21860;-59
2021/12/02 07:10:33;;;;;;;8.40;2.62;;;;;;;8.53;72.35;149799.50;1703975;82;21294;-60
2021/12/02 07:13:01;;;;;;;5.40;2.67;;;;;;;8.59;72.09;149816.36;1732614;80;21093;-59
2021/12/02 07:15:34;;;;;;;7.15;2.60;;;;;;;8.67;71.69;149834.48;1737633;81;21346;-59
2021/12/02 07:17:59;;;;;;;5.35;2.85;;;;;;;8.71;71.47;149846.17;1724624;81;21048;-59
2021/12/02 07:20:34;;;;;;;6.33;2.47;;;;;;;8.77;71.36;149860.44;1726150;80;21356;-60
2021/12/02 07:23:00;;;;;;;8.43;2.15;;;;;;;8.84;70.92;149878.56;1728646;81;22329;-61
2021/12/02 07:25:28;;;;;;;6.25;2.27;;;;;;;8.86;70.65;149883.73;1724284;81;21076;-59
2021/12/02 07:27:55;;;;;;;6.67;2.60;;;;;;;8.92;70.78;149898.00;1725037;80;21155;-59
2021/12/02 07:30:23;;;;;;;7.90;2.45;;;;;;;9.02;70.74;149922.64;1733228;81;21083;-59
2021/12/02 07:32:54;;;;;;;6.42;2.60;;;;;;;9.12;70.87;149948.53;1727271;80;21165;-58
2021/12/02 07:35:21;;;;;;;8.43;2.45;;;;;;;9.23;71.13;149974.50;1729628;80;21080;-59
2021/12/02 07:37:53;;;;;;;9.88;2.90;;;;;;;9.36;71.32;150008.17;1730192;80;21063;-60
2021/12/02 07:40:21;;;;;;;5.58;2.50;;;;;;;9.45;71.49;150031.53;1731228;80;21466;-62
2021/12/02 07:42:53;;;;;;;9.20;2.92;;;;;;;9.56;71.40;150058.77;1728825;80;21088;-59
2021/12/02 07:45:23;;;;;;;5.45;2.42;;;;;;;9.65;70.97;150080.81;1726871;80;21609;-59
2021/12/02 07:47:50;;;;;;;6.03;2.55;;;;;;;9.70;70.29;150093.78;1732199;80;21565;-61
2021/12/02 07:50:17;;;;;;;5.40;2.22;;;;;;;9.79;69.66;150114.50;1730522;80;21669;-59
2021/12/02 07:52:51;;;;;;;4.45;2.17;;;;;;;9.84;68.82;150127.52;1727172;80;21604;-62
2021/12/02 07:55:19;;;;;;;7.45;2.25;;;;;;;9.90;68.50;150143.06;1731035;80;21082;-61
2021/12/02 07:57:46;;;;;;;8.68;2.70;;;;;;;9.99;68.05;150166.39;1735958;80;21125;-59
2021/12/02 08:00:17;;;;;;;6.17;2.30;;;;;;;10.06;67.58;150181.94;1739110;80;21548;-59
2021/12/02 08:02:49;;;;;;;9.55;2.10;;;;;;;10.12;67.01;150197.55;1732229;80;21087;-60
2021/12/02 08:05:16;;;;;;;6.95;2.60;;;;;;;10.18;66.47;150213.09;1731770;81;22598;-59
2021/12/02 08:07:44;;;;;;;8.38;2.45;;;;;;;10.20;66.38;150218.28;1722627;81;21476;-60
2021/12/02 08:10:14;;;;;;;7.08;3.15;;;;;;;10.25;66.29;150231.25;1729410;80;21548;-60
2021/12/02 08:12:47;;;;;;;5.83;2.37;;;;;;;10.29;66.06;150241.66;1731536;80;21141;-60
2021/12/02 08:15:20;;;;;;;7.70;2.12;;;;;;;10.34;65.53;150252.03;1732211;80;20918;-60
2021/12/02 08:17:47;;;;;;;6.50;1.80;;;;;;;10.36;65.34;150258.50;1671295;83;20927;-60
2021/12/02 08:20:15;;;;;;;4.70;2.10;;;;;;;10.44;65.15;150278.02;1694653;83;21008;-59
2021/12/02 08:22:42;;;;;;;7.67;2.20;;;;;;;10.51;64.66;150296.20;1689541;83;21379;-59
2021/12/02 08:25:09;;;;;;;2.98;2.00;;;;;;;10.54;64.60;150303.98;1679374;83;21222;-59
2021/12/02 08:27:36;;;;;;;6.45;2.40;;;;;;;10.62;64.51;150322.14;1685119;83;21122;-59
2021/12/02 08:30:05;;;;;;;6.53;3.35;;;;;;;10.68;64.16;150337.70;1728426;81;21122;-60
2021/12/02 08:32:32;;;;;;;7.78;2.58;;;;;;;10.75;63.88;150357.17;1726199;81;21600;-59
2021/12/02 08:35:01;;;;;;;9.23;2.10;;;;;;;10.83;63.50;150375.33;1718967;81;21099;-59
2021/12/02 08:37:30;;;;;;;3.47;1.87;;;;;;;10.85;63.37;150381.84;1725550;81;21009;-60
2021/12/02 08:39:59;;;;;;;4.05;1.85;;;;;;;10.86;63.76;150383.16;1725299;81;21461;-60
2021/12/02 08:42:25;;;;;;;5.92;1.90;;;;;;;10.89;64.00;150392.22;1720109;81;21547;-59
2021/12/02 08:44:53;;;;;;;5.97;2.17;;;;;;;10.94;63.56;150402.58;1723293;80;21150;-59
2021/12/02 08:47:24;;;;;;;4.35;1.98;;;;;;;10.93;63.55;150401.31;1724213;80;21408;-60
2021/12/02 08:49:56;;;;;;;6.92;1.90;;;;;;;10.98;63.51;150413.00;1723007;81;21579;-60
2021/12/02 08:52:21;;;;;;;3.20;1.65;;;;;;;11.04;62.93;150429.84;1721551;81;21064;-60
2021/12/02 08:54:50;;;;;;;3.67;1.82;;;;;;;11.08;61.63;150438.94;1727462;80;21064;-59
2021/12/02 08:57:18;;;;;;;5.03;2.00;;;;;;;11.13;60.34;150451.92;1723715;80;21505;-60
2021/12/02 08:59:45;;;;;;;6.15;1.92;;;;;;;11.18;59.33;150464.94;1724018;80;21674;-61
2021/12/02 09:02:12;;;;;;;3.62;1.65;;;;;;;11.20;58.67;150467.53;1724109;80;21110;-58
2021/12/02 09:04:39;;;;;;;4.67;1.90;;;;;;;11.21;58.23;150470.12;1702757;83;21660;-59
2021/12/02 09:07:06;;;;;;;6.67;2.50;;;;;;;11.25;57.82;150481.78;1680013;83;21085;-61
2021/12/02 09:09:33;;;;;;;5.60;1.85;;;;;;;11.26;57.59;150484.37;1683952;83;21330;-61
2021/12/02 09:12:00;;;;;;;5.15;1.80;;;;;;;11.26;57.60;150483.09;1682995;83;21143;-61
2021/12/02 09:14:28;;;;;;;6.67;2.10;;;;;;;11.30;57.55;150494.80;1703176;82;21014;-59
2021/12/02 09:16:56;;;;;;;4.05;2.10;;;;;;;11.35;57.45;150505.17;1725476;80;21118;-61
2021/12/02 09:19:24;;;;;;;2.40;1.67;;;;;;;11.35;57.37;150505.17;1721737;80;21443;-60
2021/12/02 09:21:51;;;;;;;4.33;1.95;;;;;;;11.34;56.98;150502.58;1723687;80;21069;-60
2021/12/02 09:24:18;;;;;;;5.53;1.75;;;;;;;11.35;56.84;150505.17;1726946;81;21642;-60
2021/12/02 09:26:49;;;;;;;4.03;1.72;;;;;;;11.35;57.12;150506.44;1729411;81;20934;-60
2021/12/02 09:29:17;;;;;;;4.12;1.67;;;;;;;11.40;57.10;150519.47;1733385;80;22214;-60
2021/12/02 09:31:44;;;;;;;4.30;2.10;;;;;;;11.43;56.95;150525.94;1724789;81;21062;-60
2021/12/02 09:34:11;;;;;;;4.92;2.02;;;;;;;11.46;57.10;150535.03;1701865;82;20990;-61
2021/12/02 09:36:39;;;;;;;5.20;2.10;;;;;;;11.52;57.25;150548.02;1699443;82;21943;-59
2021/12/02 09:39:07;;;;;;;3.08;1.80;;;;;;;11.56;57.44;150558.39;1731094;80;21083;-61
2021/12/02 09:41:35;;;;;;;7.95;2.10;;;;;;;11.61;56.56;150572.69;1730866;81;21501;-61
2021/12/02 09:44:02;;;;;;;2.75;1.70;;;;;;;11.64;56.76;150577.88;1730666;80;21175;-61
2021/12/02 09:46:29;;;;;;;2.52;1.70;;;;;;;11.68;56.86;150589.58;1732582;80;21430;-61
2021/12/02 09:48:57;;;;;;;4.47;1.77;;;;;;;11.70;56.91;150594.78;1729997;80;21144;-61
2021/12/02 09:51:35;;;;;;;6.75;2.02;;;;;;;11.75;56.89;150607.75;1728202;80;21459;-60
2021/12/02 09:54:04;;;;;;;3.47;1.82;;;;;;;11.82;56.70;150623.31;1722073;81;21526;-60
2021/12/02 09:56:30;;;;;;;4.97;2.05;;;;;;;11.85;56.82;150632.44;1723324;81;21126;-61
2021/12/02 09:59:03;;;;;;;5.67;1.95;;;;;;;11.94;56.81;150653.25;1728506;80;21031;-60
2021/12/02 10:01:37;;;;;;;4.22;1.47;;;;;;;11.98;56.51;150664.89;1723515;80;21127;-60
2021/12/02 10:04:00;;;;;;;4.47;2.10;;;;;;;12.03;56.52;150677.92;1728990;80;21075;-59
2021/12/02 10:06:29;;;;;;;5.90;2.42;;;;;;;12.07;56.47;150685.77;1737331;80;21047;-61
2021/12/02 10:09:08;;;;;;;6.05;1.90;;;;;;;12.13;56.44;150702.61;1735114;80;21114;-63
2021/12/02 10:11:50;;;;;;;4.42;1.85;;;;;;;12.22;56.52;150724.70;1741308;81;21043;-60
2021/12/02 10:14:23;;;;;;;6.22;1.95;;;;;;;12.31;56.61;150748.11;1734808;80;21537;-64
2021/12/02 10:17:21;;;;;;;5.33;1.90;;;;;;;12.38;56.45;150765.02;1743923;80;21097;-62
2021/12/02 10:20:17;;;;;;;6.10;1.77;;;;;;;12.47;56.02;150787.06;1740747;80;21123;-62
2021/12/02 10:22:40;;;;;;;5.25;1.80;;;;;;;12.55;55.83;150807.89;1738630;80;21162;-62
2021/12/02 10:25:07;;;;;;;3.35;1.80;;;;;;;12.65;55.45;150831.25;1738429;80;21571;-60
2021/12/02 10:27:35;;;;;;;3.37;1.90;;;;;;;12.73;55.57;150852.08;1735908;80;21501;-60
2021/12/02 10:30:21;;;;;;;4.30;1.60;;;;;;;12.77;54.92;150861.16;1734549;80;21580;-60
2021/12/02 10:32:51;;;;;;;4.58;1.47;;;;;;;12.77;54.75;150861.16;1683599;80;21062;-61
2021/12/02 10:35:20;;;;;;;3.00;1.80;;;;;;;12.72;54.67;150849.48;1737155;80;21316;-60
2021/12/02 10:37:47;;;;;;;4.83;1.70;;;;;;;12.71;54.53;150846.84;1737956;80;21111;-59
2021/12/02 10:40:16;;;;;;;5.35;1.85;;;;;;;12.69;54.57;150842.97;1740903;80;22165;-59
2021/12/02 10:42:45;;;;;;;3.05;1.80;;;;;;;12.68;54.41;150839.05;1709595;80;21504;-61
2021/12/02 10:45:25;;;;;;;2.95;1.70;;;;;;;12.66;54.19;150833.84;1744702;80;21600;-59
2021/12/02 10:47:53;;;;;;;6.67;1.92;;;;;;;12.63;54.13;150826.06;1736749;80;22168;-59
2021/12/02 10:50:21;;;;;;;3.25;1.70;;;;;;;12.61;54.15;150822.19;1738787;80;21525;-62
2021/12/02 10:52:48;;;;;;;3.25;1.52;;;;;;;12.65;54.19;150831.25;1744743;80;21114;-60
2021/12/02 10:55:18;;;;;;;4.55;1.60;;;;;;;12.69;53.85;150841.64;1739763;80;21083;-62
2021/12/02 10:57:51;;;;;;;6.53;1.82;;;;;;;12.72;53.80;150849.48;1738535;81;20986;-61
2021/12/02 11:00:20;;;;;;;3.10;1.87;;;;;;;12.77;53.77;150862.47;1732279;80;21110;-62
2021/12/02 11:02:50;;;;;;;4.45;2.10;;;;;;;12.81;53.64;150872.86;1743475;80;21071;-60
2021/12/02 11:05:33;;;;;;;5.75;2.00;;;;;;;12.84;53.56;150880.66;1682271;83;21074;-61
2021/12/02 11:08:08;;;;;;;3.10;1.65;;;;;;;12.89;53.76;150893.64;1689488;83;21137;-60
2021/12/02 11:10:44;;;;;;;6.45;1.80;;;;;;;12.96;53.71;150909.27;1685043;83;24709;-59
2021/12/02 11:13:21;;;;;;;4.30;1.40;;;;;;;13.03;53.44;150927.45;1686822;83;21112;-60
2021/12/02 11:15:48;;;;;;;4.45;2.60;;;;;;;13.11;53.27;150948.23;1685219;83;21069;-60
2021/12/02 11:18:16;;;;;;;5.25;2.22;;;;;;;13.18;53.12;150966.47;1686754;83;21592;-60
2021/12/02 11:20:45;;;;;;;3.65;1.60;;;;;;;13.27;53.02;150987.25;1687794;83;21082;-61
2021/12/02 11:23:28;;;;;;;3.17;1.50;;;;;;;13.33;52.69;151004.17;1698394;82;21050;-60
2021/12/02 11:26:08;;;;;;;5.80;1.80;;;;;;;13.40;52.61;151021.08;1681998;83;21142;-61
2021/12/02 11:28:37;;;;;;;4.35;1.67;;;;;;;13.48;52.95;151039.31;1678001;83;21522;-60
2021/12/02 11:31:13;;;;;;;6.62;2.12;;;;;;;13.56;53.12;151060.11;1683310;83;21146;-60
2021/12/02 11:33:40;;;;;;;6.30;2.30;;;;;;;13.61;53.12;151073.14;1684309;83;21571;-60
2021/12/02 11:36:18;;;;;;;4.30;2.00;;;;;;;13.62;52.92;151075.75;1682946;83;21972;-62
2021/12/02 11:38:45;;;;;;;3.47;2.08;;;;;;;13.64;52.86;151079.62;1681283;83;21073;-60
2021/12/02 11:41:14;;;;;;;4.67;1.77;;;;;;;13.62;52.66;151075.75;1667393;83;21073;-62
2021/12/02 11:43:40;;;;;;;6.85;2.00;;;;;;;13.61;52.40;151073.14;1677363;83;21956;-59
2021/12/02 11:46:09;;;;;;;6.05;2.27;;;;;;;13.59;52.50;151067.91;1672691;83;21883;-61
2021/12/02 11:48:41;;;;;;;7.85;2.05;;;;;;;13.56;52.63;151060.11;1725330;80;21052;-62
2021/12/02 11:51:12;;;;;;;7.25;2.22;;;;;;;13.51;52.71;151047.11;1727778;80;21475;-63